Darstellungsparameter: Aktuell verwendete Einstellungen:
Skalierung der Graphiken ... ?
xyx+y,   Skalierungsfaktor:      Skalierung: Modus: x, Faktor: 1
Darstellungszeitraum ... ?
Vom - - bis: - -   Zeitraum: 20.06.2019 - 19.07.2019
Min/Max/Avg-Anzeige ... ?
Zeige MMA aktuell
Zeige MMA Monat
Zeige MMA alles
Zeige --A aktuell
Zeige --A Monat
Zeige --A alles
Keine MMA-Anzeige
MMA:
Average (ber die Originaldaten)
MMA-Basis: 20.06.2019 - 19.07.2019
Quicknavigation für Darstellung... ?
Tage:      1T, 2T, 3T, 5T -1T -2T -3T -5T +1T +2T +3T +5T
Wochen: 1W, 2W, 3W -1W -2W -3W +1W +2W +3W
Monate: 1M, 3M, 6M -1M -3M -6M +1M +3M +6M
Jahre:    1J, 3J, 5J, 10J -1J -3J -5J -10J +1J +3J +5J +10J
Nutze für die Darstellung ... ?
Originaldaten oder ...
Mittelwerte Minima Maxima auf...
Stundenbasis Tagesbasis Wochenbasis
Monatsbasis Jahresbasis      Datenbasis: Mittelwerte auf Stundenbasis
Darstellen als:
Statistik (Auto) Statistik J:M      Darstellung:
Zur Graphik,    zurück zur Übersicht aller Sensoren.
 
Tabellarische Datenbersicht: ?
 
Sensor: Nr:Datum:Temp:Abs-Feuchte:Windchill:Wind:
Aussen-T/F 1 20-06-2019 00:00:00 18.75 C 13.38 g/m*3 18.75 C 0 km/h
2 20-06-2019 01:00:00 17.98333 C 13.23 g/m*3 17.98 C 0 km/h
3 20-06-2019 02:00:00 17.45833 C 13.2 g/m*3 17.46 C 0.13333 km/h
4 20-06-2019 03:00:00 17.7 C 13.5 g/m*3 17.7 C 1.73333 km/h
5 20-06-2019 04:00:00 17.31667 C 13.21 g/m*3 17.32 C 1.33333 km/h
6 20-06-2019 05:00:00 16.68333 C 12.97 g/m*3 16.68 C 0.26667 km/h
7 20-06-2019 06:00:00 16.85833 C 13.25 g/m*3 16.86 C 0.8 km/h
8 20-06-2019 07:00:00 17.73333 C 13.49 g/m*3 17.73 C 3.60833 km/h
9 20-06-2019 08:00:00 19.45 C 13.62 g/m*3 19.45 C 8.75 km/h
10 20-06-2019 09:00:00 20.2 C 13.27 g/m*3 20.2 C 11.7 km/h
11 20-06-2019 10:00:00 21.30833 C 13.19 g/m*3 21.31 C 13.3 km/h
12 20-06-2019 11:00:00 21.89167 C 13.49 g/m*3 21.89 C 12.23333 km/h
13 20-06-2019 12:00:00 22.65 C 13.4 g/m*3 22.65 C 13.3 km/h
14 20-06-2019 13:00:00 23.24167 C 13.49 g/m*3 23.24 C 9.41667 km/h
15 20-06-2019 14:00:00 24.61667 C 13.24 g/m*3 24.62 C 11.025 km/h
16 20-06-2019 15:00:00 21.45833 C 14.12 g/m*3 21.46 C 11.41667 km/h
17 20-06-2019 16:00:00 22.75 C 14.57 g/m*3 22.75 C 8.875 km/h
18 20-06-2019 17:00:00 21.25833 C 14.23 g/m*3 21.26 C 7.51667 km/h
19 20-06-2019 18:00:00 20 C 14.01 g/m*3 20 C 8.86667 km/h
20 20-06-2019 19:00:00 18.75833 C 13.15 g/m*3 18.76 C 3.75 km/h
21 20-06-2019 20:00:00 18.66667 C 13.16 g/m*3 18.67 C 0.53333 km/h
22 20-06-2019 21:00:00 18.21667 C 13.08 g/m*3 18.22 C 0 km/h
23 20-06-2019 22:00:00 16.9 C 12.51 g/m*3 16.9 C 0 km/h
24 20-06-2019 23:00:00 15.725 C 12.15 g/m*3 15.73 C 0 km/h
25 21-06-2019 00:00:00 15.5 C 12.36 g/m*3 15.5 C 0.4 km/h
Sensor: Nr:Datum:Temp:Abs-Feuchte:Windchill:Wind:
Aussen-T/F 26 21-06-2019 01:00:00 14.89167 C 11.85 g/m*3 14.89 C 0 km/h
27 21-06-2019 02:00:00 14.78333 C 11.94 g/m*3 14.78 C 0 km/h
28 21-06-2019 03:00:00 15.06667 C 12.13 g/m*3 15.07 C 0 km/h
29 21-06-2019 04:00:00 14.91667 C 12.01 g/m*3 14.92 C 0 km/h
30 21-06-2019 05:00:00 14.325 C 11.56 g/m*3 14.33 C 0 km/h
31 21-06-2019 06:00:00 14.175 C 11.39 g/m*3 14.18 C 0 km/h
32 21-06-2019 07:00:00 14.63333 C 11.62 g/m*3 14.63 C 0 km/h
33 21-06-2019 08:00:00 15.88333 C 10.74 g/m*3 15.88 C 5.225 km/h
34 21-06-2019 09:00:00 16.7 C 10.41 g/m*3 16.7 C 4.94167 km/h
35 21-06-2019 10:00:00 18.28333 C 10.39 g/m*3 18.28 C 6.44167 km/h
36 21-06-2019 11:00:00 19.45 C 10.21 g/m*3 19.45 C 4.26667 km/h
37 21-06-2019 12:00:00 20.10833 C 10.13 g/m*3 20.11 C 7.65833 km/h
38 21-06-2019 13:00:00 21.3 C 9.82 g/m*3 21.3 C 8.875 km/h
39 21-06-2019 14:00:00 22.03333 C 9.22 g/m*3 22.03 C 8.725 km/h
40 21-06-2019 15:00:00 22.6 C 9.29 g/m*3 22.6 C 6.975 km/h
41 21-06-2019 16:00:00 23.64167 C 9.22 g/m*3 23.64 C 6.85 km/h
42 21-06-2019 17:00:00 25.125 C 9.16 g/m*3 25.13 C 9.15833 km/h
43 21-06-2019 18:00:00 24.95833 C 9.07 g/m*3 24.96 C 12.48333 km/h
44 21-06-2019 19:00:00 23.63333 C 9.13 g/m*3 23.63 C 11.43333 km/h
45 21-06-2019 20:00:00 22.15 C 9.23 g/m*3 22.15 C 10.21667 km/h
46 21-06-2019 21:00:00 19.375 C 9.52 g/m*3 19.38 C 2.68333 km/h
47 21-06-2019 22:00:00 16.6 C 9.38 g/m*3 16.6 C 0 km/h
48 21-06-2019 23:00:00 15.23333 C 9.43 g/m*3 15.23 C 0 km/h
49 22-06-2019 00:00:00 13.71667 C 9.36 g/m*3 13.72 C 0 km/h
50 22-06-2019 01:00:00 13.01667 C 9.34 g/m*3 13.02 C 0 km/h
Sensor: Nr:Datum:Temp:Abs-Feuchte:Windchill:Wind:
Aussen-T/F 51 22-06-2019 02:00:00 12.10833 C 9.19 g/m*3 12.11 C 0 km/h
52 22-06-2019 03:00:00 11.5 C 9.14 g/m*3 11.5 C 0 km/h
53 22-06-2019 04:00:00 11.05833 C 9.08 g/m*3 11.06 C 0 km/h
54 22-06-2019 05:00:00 10.675 C 9 g/m*3 10.68 C 0 km/h
55 22-06-2019 06:00:00 10.70833 C 9.14 g/m*3 10.71 C 0 km/h
56 22-06-2019 07:00:00 11.80833 C 9.93 g/m*3 11.81 C 0 km/h
57 22-06-2019 08:00:00 13.84167 C 10.82 g/m*3 13.84 C 0.4 km/h
58 22-06-2019 09:00:00 16.275 C 11.06 g/m*3 16.27 C 1.06667 km/h
59 22-06-2019 10:00:00 19.475 C 11.26 g/m*3 19.48 C 6.29167 km/h
60 22-06-2019 11:00:00 21.21667 C 11.53 g/m*3 21.22 C 10.09167 km/h
61 22-06-2019 12:00:00 22.66667 C 12.02 g/m*3 22.67 C 9.55 km/h
62 22-06-2019 13:00:00 24.175 C 12.23 g/m*3 24.18 C 10.89167 km/h
63 22-06-2019 14:00:00 25.025 C 12.43 g/m*3 25.03 C 10.75 km/h
64 22-06-2019 15:00:00 25.59167 C 11.88 g/m*3 25.59 C 9.14167 km/h
65 22-06-2019 16:00:00 26.50833 C 11.81 g/m*3 26.51 C 6.70833 km/h
66 22-06-2019 17:00:00 26.26667 C 12.03 g/m*3 26.27 C 5.61667 km/h
67 22-06-2019 18:00:00 27.45 C 11.48 g/m*3 27.45 C 10.1 km/h
68 22-06-2019 19:00:00 27.53333 C 11.6 g/m*3 27.53 C 10.09167 km/h
69 22-06-2019 20:00:00 26.95 C 12.36 g/m*3 26.95 C 9.95833 km/h
70 22-06-2019 21:00:00 23.525 C 13.2 g/m*3 23.53 C 2.54167 km/h
71 22-06-2019 22:00:00 20.3 C 12.85 g/m*3 20.3 C 0.13333 km/h
72 22-06-2019 23:00:00 18.63333 C 12.65 g/m*3 18.63 C 0 km/h
73 23-06-2019 00:00:00 17.4 C 12.37 g/m*3 17.4 C 0 km/h
74 23-06-2019 01:00:00 16.33333 C 12.08 g/m*3 16.33 C 0 km/h
75 23-06-2019 02:00:00 15.64167 C 11.9 g/m*3 15.64 C 0 km/h
Sensor: Nr:Datum:Temp:Abs-Feuchte:Windchill:Wind:
Aussen-T/F 76 23-06-2019 03:00:00 14.98333 C 11.66 g/m*3 14.98 C 0 km/h
77 23-06-2019 04:00:00 14.53333 C 11.5 g/m*3 14.53 C 0 km/h
78 23-06-2019 05:00:00 14.075 C 11.31 g/m*3 14.08 C 0 km/h
79 23-06-2019 06:00:00 14.20833 C 11.5 g/m*3 14.21 C 0 km/h
80 23-06-2019 07:00:00 14.74167 C 11.98 g/m*3 14.74 C 0 km/h
81 23-06-2019 08:00:00 16.09167 C 12.96 g/m*3 16.09 C 0.26667 km/h
82 23-06-2019 09:00:00 18.65833 C 13.81 g/m*3 18.66 C 3.75833 km/h
83 23-06-2019 10:00:00 22.525 C 13.8 g/m*3 22.53 C 10.75833 km/h
84 23-06-2019 11:00:00 24.14167 C 14.11 g/m*3 24.14 C 11.29167 km/h
85 23-06-2019 12:00:00 25.21667 C 14.33 g/m*3 25.22 C 10.75833 km/h
86 23-06-2019 13:00:00 26.58333 C 14.08 g/m*3 26.58 C 10.48333 km/h
87 23-06-2019 14:00:00 27.84167 C 13.77 g/m*3 27.84 C 14.09167 km/h
88 23-06-2019 15:00:00 28.575 C 13.54 g/m*3 28.58 C 8.35833 km/h
89 23-06-2019 16:00:00 30.24167 C 13.26 g/m*3 30.24 C 10.20833 km/h
90 23-06-2019 17:00:00 30.6 C 13.52 g/m*3 30.6 C 9.94167 km/h
91 23-06-2019 18:00:00 30.3 C 13.61 g/m*3 30.3 C 7.375 km/h
92 23-06-2019 19:00:00 29.025 C 14.48 g/m*3 29.03 C 4.00833 km/h
93 23-06-2019 20:00:00 25.85833 C 14.98 g/m*3 25.86 C 0 km/h
94 23-06-2019 21:00:00 23.39167 C 14.22 g/m*3 23.39 C 0 km/h
95 23-06-2019 22:00:00 21.70833 C 13.8 g/m*3 21.71 C 0 km/h
96 23-06-2019 23:00:00 20.25 C 13.65 g/m*3 20.25 C 0 km/h
97 24-06-2019 00:00:00 19.11667 C 13.48 g/m*3 19.12 C 0 km/h
98 24-06-2019 01:00:00 18.43333 C 13.29 g/m*3 18.43 C 0 km/h
99 24-06-2019 02:00:00 17.54167 C 13.02 g/m*3 17.54 C 0 km/h
100 24-06-2019 03:00:00 16.95833 C 12.86 g/m*3 16.96 C 0 km/h
Sensor: Nr:Datum:Temp:Abs-Feuchte:Windchill:Wind:
Aussen-T/F 101 24-06-2019 04:00:00 16.55 C 12.77 g/m*3 16.55 C 0 km/h
102 24-06-2019 05:00:00 16.40833 C 12.86 g/m*3 16.41 C 0 km/h
103 24-06-2019 06:00:00 16.70833 C 13.21 g/m*3 16.71 C 0 km/h
104 24-06-2019 07:00:00 17.45 C 13.81 g/m*3 17.45 C 0 km/h
105 24-06-2019 08:00:00 18.55 C 14.56 g/m*3 18.55 C 0 km/h
106 24-06-2019 09:00:00 21.25833 C 15.74 g/m*3 21.26 C 3.74167 km/h
107 24-06-2019 10:00:00 25.475 C 15.86 g/m*3 25.48 C 8.33333 km/h
108 24-06-2019 11:00:00 26.95833 C 15.32 g/m*3 26.96 C 8.325 km/h
109 24-06-2019 12:00:00 27.88333 C 15 g/m*3 27.88 C 12.63333 km/h
110 24-06-2019 13:00:00 29.05833 C 14.98 g/m*3 29.06 C 15.03333 km/h
111 24-06-2019 14:00:00 30.1 C 15.19 g/m*3 30.1 C 10.9 km/h
112 24-06-2019 15:00:00 31.38333 C 15.3 g/m*3 31.38 C 12.1 km/h
113 24-06-2019 16:00:00 32.73333 C 15.44 g/m*3 32.73 C 9.68333 km/h
114 24-06-2019 17:00:00 32.96667 C 15.84 g/m*3 32.97 C 9.55 km/h
115 24-06-2019 18:00:00 33.1 C 15.75 g/m*3 33.1 C 9.40833 km/h
116 24-06-2019 19:00:00 32.375 C 15.67 g/m*3 32.38 C 8.06667 km/h
117 24-06-2019 20:00:00 30.64167 C 15.85 g/m*3 30.64 C 6.425 km/h
118 24-06-2019 21:00:00 26.81667 C 16.24 g/m*3 26.82 C 0.13333 km/h
119 24-06-2019 22:00:00 23.99167 C 15.44 g/m*3 23.99 C 0 km/h
120 24-06-2019 23:00:00 22.68333 C 14.94 g/m*3 22.68 C 0 km/h
121 25-06-2019 00:00:00 21.4 C 14.53 g/m*3 21.4 C 0 km/h
122 25-06-2019 01:00:00 20.425 C 14.32 g/m*3 20.43 C 0 km/h
123 25-06-2019 02:00:00 19.35833 C 13.91 g/m*3 19.36 C 0 km/h
124 25-06-2019 03:00:00 18.46667 C 13.51 g/m*3 18.47 C 0 km/h
125 25-06-2019 04:00:00 17.825 C 13.39 g/m*3 17.83 C 0 km/h
Sensor: Nr:Datum:Temp:Abs-Feuchte:Windchill:Wind:
Aussen-T/F 126 25-06-2019 05:00:00 17.51667 C 13.34 g/m*3 17.52 C 0 km/h
127 25-06-2019 06:00:00 17.76667 C 13.76 g/m*3 17.77 C 0 km/h
128 25-06-2019 07:00:00 18.44167 C 14.3 g/m*3 18.44 C 0 km/h
129 25-06-2019 08:00:00 20.1 C 15.38 g/m*3 20.1 C 0 km/h
130 25-06-2019 09:00:00 22.56667 C 16.39 g/m*3 22.57 C 2.40833 km/h
131 25-06-2019 10:00:00 26.46667 C 16.43 g/m*3 26.47 C 6.15833 km/h
132 25-06-2019 11:00:00 28.05833 C 16.16 g/m*3 28.06 C 5.9 km/h
133 25-06-2019 12:00:00 29.51667 C 16.49 g/m*3 29.52 C 6.03333 km/h
134 25-06-2019 13:00:00 31.1 C 16.73 g/m*3 31.1 C 7.375 km/h
135 25-06-2019 14:00:00 32.75833 C 16.49 g/m*3 32.76 C 8.725 km/h
136 25-06-2019 15:00:00 34.91667 C 16.43 g/m*3 34.92 C 10.23333 km/h
137 25-06-2019 16:00:00 36.45833 C 16.24 g/m*3 36.46 C 8.06667 km/h
138 25-06-2019 17:00:00 37.69167 C 14.95 g/m*3 37.69 C 8.06667 km/h
139 25-06-2019 18:00:00 36.71667 C 15.88 g/m*3 36.72 C 7.25833 km/h
140 25-06-2019 19:00:00 34.225 C 18.41 g/m*3 34.23 C 1.33333 km/h
141 25-06-2019 20:00:00 31.78333 C 17.41 g/m*3 31.78 C 0.26667 km/h
142 25-06-2019 21:00:00 28.025 C 16.04 g/m*3 28.03 C 0.26667 km/h
143 25-06-2019 22:00:00 25.60833 C 15.24 g/m*3 25.61 C 0.4 km/h
144 25-06-2019 23:00:00 24.15833 C 14.47 g/m*3 24.16 C 0 km/h
145 26-06-2019 00:00:00 23.41667 C 14.63 g/m*3 23.42 C 0.13333 km/h
146 26-06-2019 01:00:00 22.38333 C 14.72 g/m*3 22.38 C 1.06667 km/h
147 26-06-2019 02:00:00 21.20833 C 14.65 g/m*3 21.21 C 0.4 km/h
148 26-06-2019 03:00:00 20.575 C 14.64 g/m*3 20.58 C 0.4 km/h
149 26-06-2019 04:00:00 19.825 C 14.44 g/m*3 19.83 C 0 km/h
150 26-06-2019 05:00:00 19.475 C 14.5 g/m*3 19.48 C 0.66667 km/h
Sensor: Nr:Datum:Temp:Abs-Feuchte:Windchill:Wind:
Aussen-T/F 151 26-06-2019 06:00:00 19.575 C 14.81 g/m*3 19.58 C 0.26667 km/h
152 26-06-2019 07:00:00 20.03333 C 15.24 g/m*3 20.03 C 0.53333 km/h
153 26-06-2019 08:00:00 22.7 C 17.68 g/m*3 22.7 C 0 km/h
154 26-06-2019 09:00:00 24.64167 C 18.72 g/m*3 24.64 C 4.15 km/h
155 26-06-2019 10:00:00 27.25 C 19.33 g/m*3 27.25 C 4.275 km/h
156 26-06-2019 11:00:00 28.95 C 19.53 g/m*3 28.95 C 7.24167 km/h
157 26-06-2019 12:00:00 30.24167 C 19.3 g/m*3 30.24 C 6.575 km/h
158 26-06-2019 13:00:00 31.63333 C 17.57 g/m*3 31.63 C 8.08333 km/h
159 26-06-2019 14:00:00 32.64167 C 17.64 g/m*3 32.64 C 9.15 km/h
160 26-06-2019 15:00:00 33.9 C 18.51 g/m*3 33.9 C 9.825 km/h
161 26-06-2019 16:00:00 34.76667 C 17.9 g/m*3 34.77 C 11.3 km/h
162 26-06-2019 17:00:00 34.76667 C 17.18 g/m*3 34.77 C 11.16667 km/h
163 26-06-2019 18:00:00 34.36667 C 16 g/m*3 34.37 C 11.96667 km/h
164 26-06-2019 19:00:00 33.36667 C 15.82 g/m*3 33.37 C 10.76667 km/h
165 26-06-2019 20:00:00 30.94167 C 16.03 g/m*3 30.94 C 8.34167 km/h
166 26-06-2019 21:00:00 28.8 C 16.05 g/m*3 28.8 C 2.93333 km/h
167 26-06-2019 22:00:00 26.4 C 16.24 g/m*3 26.4 C 2.68333 km/h
168 26-06-2019 23:00:00 26.03333 C 16.91 g/m*3 26.03 C 5.63333 km/h
169 27-06-2019 00:00:00 25.24167 C 17.03 g/m*3 25.24 C 5.89167 km/h
170 27-06-2019 01:00:00 24.11667 C 16.75 g/m*3 24.12 C 4.675 km/h
171 27-06-2019 02:00:00 23.25833 C 16.37 g/m*3 23.26 C 2.66667 km/h
172 27-06-2019 03:00:00 22.41667 C 15.51 g/m*3 22.42 C 4.40833 km/h
173 27-06-2019 04:00:00 21.66667 C 14.66 g/m*3 21.67 C 6.025 km/h
174 27-06-2019 05:00:00 20.54167 C 14.17 g/m*3 20.54 C 3.20833 km/h
175 27-06-2019 06:00:00 20.01667 C 13.97 g/m*3 20.02 C 1.86667 km/h
Sensor: Nr:Datum:Temp:Abs-Feuchte:Windchill:Wind:
Aussen-T/F 176 27-06-2019 07:00:00 20.03333 C 13.81 g/m*3 20.03 C 6.41667 km/h
177 27-06-2019 08:00:00 20.6 C 13.87 g/m*3 20.6 C 6.01667 km/h
178 27-06-2019 09:00:00 21.45833 C 13.92 g/m*3 21.46 C 8.35 km/h
179 27-06-2019 10:00:00 22.83333 C 13.84 g/m*3 22.83 C 10.09167 km/h
180 27-06-2019 11:00:00 24.03333 C 13.53 g/m*3 24.03 C 9.14167 km/h
181 27-06-2019 12:00:00 24.84167 C 13.44 g/m*3 24.84 C 12.1 km/h
182 27-06-2019 13:00:00 25.875 C 12.87 g/m*3 25.88 C 10.63333 km/h
183 27-06-2019 14:00:00 26.98333 C 12.43 g/m*3 26.98 C 11.43333 km/h
184 27-06-2019 15:00:00 28.6 C 11.55 g/m*3 28.6 C 12.9 km/h
185 27-06-2019 16:00:00 30.18333 C 9.93 g/m*3 30.18 C 13.56667 km/h
186 27-06-2019 17:00:00 30.54167 C 8.74 g/m*3 30.54 C 13.83333 km/h
187 27-06-2019 18:00:00 30.225 C 8.08 g/m*3 30.23 C 12.1 km/h
188 27-06-2019 19:00:00 29.59167 C 7.64 g/m*3 29.59 C 11.3 km/h
189 27-06-2019 20:00:00 27.43333 C 8.57 g/m*3 27.43 C 8.475 km/h
190 27-06-2019 21:00:00 24.48333 C 9.32 g/m*3 24.48 C 3.46667 km/h
191 27-06-2019 22:00:00 21.28333 C 10.24 g/m*3 21.28 C 1.46667 km/h
192 27-06-2019 23:00:00 19.9 C 10.45 g/m*3 19.9 C 1.33333 km/h
193 28-06-2019 00:00:00 18.53333 C 10.48 g/m*3 18.53 C 0 km/h
194 28-06-2019 01:00:00 17.18333 C 10.48 g/m*3 17.18 C 0 km/h
195 28-06-2019 02:00:00 16.26667 C 10.59 g/m*3 16.27 C 0 km/h
196 28-06-2019 03:00:00 15.48333 C 10.6 g/m*3 15.48 C 0 km/h
197 28-06-2019 04:00:00 14.35 C 10.38 g/m*3 14.35 C 0 km/h
198 28-06-2019 05:00:00 13.51667 C 10.24 g/m*3 13.52 C 0 km/h
199 28-06-2019 06:00:00 13.35833 C 10.41 g/m*3 13.36 C 0 km/h
200 28-06-2019 07:00:00 13.86667 C 10.87 g/m*3 13.87 C 0 km/h
Sensor: Nr:Datum:Temp:Abs-Feuchte:Windchill:Wind:
Aussen-T/F 201 28-06-2019 08:00:00 15.39167 C 11.23 g/m*3 15.39 C 2.4 km/h
202 28-06-2019 09:00:00 17.7 C 11.3 g/m*3 17.7 C 3.73333 km/h
203 28-06-2019 10:00:00 19.81667 C 11.53 g/m*3 19.82 C 5.20833 km/h
204 28-06-2019 11:00:00 21.475 C 11.36 g/m*3 21.48 C 6.3 km/h
205 28-06-2019 12:00:00 22.84167 C 11.34 g/m*3 22.84 C 8.05833 km/h
206 28-06-2019 13:00:00 24.66667 C 10.67 g/m*3 24.67 C 9.81667 km/h
207 28-06-2019 14:00:00 26.31667 C 10.49 g/m*3 26.32 C 8.89167 km/h
208 28-06-2019 15:00:00 28.225 C 10.62 g/m*3 28.23 C 8.05 km/h
209 28-06-2019 16:00:00 30.25 C 10.32 g/m*3 30.25 C 8.86667 km/h
210 28-06-2019 17:00:00 31.13333 C 9.59 g/m*3 31.13 C 8.58333 km/h
211 28-06-2019 18:00:00 31.66667 C 9.29 g/m*3 31.67 C 7.65 km/h
212 28-06-2019 19:00:00 31.2 C 9.73 g/m*3 31.2 C 6.56667 km/h
213 28-06-2019 20:00:00 29.49167 C 10.87 g/m*3 29.49 C 4.3 km/h
214 28-06-2019 21:00:00 25.61667 C 11.48 g/m*3 25.62 C 0.8 km/h
215 28-06-2019 22:00:00 21.58333 C 10.36 g/m*3 21.58 C 0.4 km/h
216 28-06-2019 23:00:00 19.275 C 10.54 g/m*3 19.27 C 0 km/h
217 29-06-2019 00:00:00 18.40833 C 10.37 g/m*3 18.41 C 0.4 km/h
218 29-06-2019 01:00:00 17.83333 C 10.35 g/m*3 17.83 C 0.53333 km/h
219 29-06-2019 02:00:00 17.09167 C 10.32 g/m*3 17.09 C 0.13333 km/h
220 29-06-2019 03:00:00 16.39167 C 10.37 g/m*3 16.39 C 0 km/h
221 29-06-2019 04:00:00 15.175 C 10.18 g/m*3 15.18 C 0 km/h
222 29-06-2019 05:00:00 14.09167 C 10.04 g/m*3 14.09 C 0 km/h
223 29-06-2019 06:00:00 13.70833 C 10.13 g/m*3 13.71 C 0 km/h
224 29-06-2019 07:00:00 14.075 C 10.62 g/m*3 14.08 C 0 km/h
225 29-06-2019 08:00:00 15.26667 C 11.33 g/m*3 15.27 C 0 km/h
Sensor: Nr:Datum:Temp:Abs-Feuchte:Windchill:Wind:
Aussen-T/F 226 29-06-2019 09:00:00 19.2 C 11.79 g/m*3 19.2 C 6.16667 km/h
227 29-06-2019 10:00:00 23.49167 C 11.64 g/m*3 23.49 C 9 km/h
228 29-06-2019 11:00:00 25.775 C 11.54 g/m*3 25.78 C 7.925 km/h
229 29-06-2019 12:00:00 27.41667 C 11.74 g/m*3 27.42 C 10.89167 km/h
230 29-06-2019 13:00:00 29.11667 C 10.24 g/m*3 29.12 C 11.69167 km/h
231 29-06-2019 14:00:00 30.58333 C 9.54 g/m*3 30.58 C 11.13333 km/h
232 29-06-2019 15:00:00 32.63333 C 9.25 g/m*3 32.63 C 10.75 km/h
233 29-06-2019 16:00:00 34.24167 C 8.93 g/m*3 34.24 C 12.09167 km/h
234 29-06-2019 17:00:00 35.325 C 8.95 g/m*3 35.33 C 7.78333 km/h
235 29-06-2019 18:00:00 35.64167 C 9.23 g/m*3 35.64 C 7.38333 km/h
236 29-06-2019 19:00:00 35.26667 C 9.39 g/m*3 35.27 C 4.66667 km/h
237 29-06-2019 20:00:00 32.425 C 11.77 g/m*3 32.42 C 1.06667 km/h
238 29-06-2019 21:00:00 27.60833 C 10.67 g/m*3 27.61 C 1.6 km/h
239 29-06-2019 22:00:00 24.225 C 10.01 g/m*3 24.23 C 1.2 km/h
240 29-06-2019 23:00:00 21.23333 C 10.66 g/m*3 21.23 C 0 km/h
241 30-06-2019 00:00:00 18.93333 C 10.69 g/m*3 18.93 C 0 km/h
242 30-06-2019 01:00:00 17.525 C 10.78 g/m*3 17.52 C 0 km/h
243 30-06-2019 02:00:00 16.75 C 10.77 g/m*3 16.75 C 0 km/h
244 30-06-2019 03:00:00 16.10833 C 10.8 g/m*3 16.11 C 0 km/h
245 30-06-2019 04:00:00 15.58333 C 10.81 g/m*3 15.58 C 0.26667 km/h
246 30-06-2019 05:00:00 15.05 C 10.75 g/m*3 15.05 C 0 km/h
247 30-06-2019 06:00:00 14.85 C 10.99 g/m*3 14.85 C 0 km/h
248 30-06-2019 07:00:00 15.44167 C 11.57 g/m*3 15.44 C 0.13333 km/h
249 30-06-2019 08:00:00 17.025 C 12.52 g/m*3 17.02 C 0 km/h
250 30-06-2019 09:00:00 19.65833 C 13.82 g/m*3 19.66 C 0 km/h
Sensor: Nr:Datum:Temp:Abs-Feuchte:Windchill:Wind:
Aussen-T/F 251 30-06-2019 10:00:00 25.225 C 15.09 g/m*3 25.23 C 5.64167 km/h
252 30-06-2019 11:00:00 30.59167 C 14.17 g/m*3 30.59 C 12.76667 km/h
253 30-06-2019 12:00:00 32.48333 C 13.85 g/m*3 32.48 C 8.61667 km/h
254 30-06-2019 13:00:00 34.6 C 13.55 g/m*3 34.6 C 11.7 km/h
255 30-06-2019 14:00:00 36.00833 C 14.3 g/m*3 36.01 C 15.03333 km/h
256 30-06-2019 15:00:00 35.5 C 16.53 g/m*3 35.5 C 14.9 km/h
257 30-06-2019 16:00:00 35.49167 C 18.25 g/m*3 35.49 C 10.75 km/h
258 30-06-2019 17:00:00 35.875 C 18.86 g/m*3 35.88 C 8.34167 km/h
259 30-06-2019 18:00:00 34.975 C 18.29 g/m*3 34.98 C 10.23333 km/h
260 30-06-2019 19:00:00 32.65833 C 17.71 g/m*3 32.66 C 11.01667 km/h
261 30-06-2019 20:00:00 29.35 C 17.22 g/m*3 29.35 C 13.43333 km/h
262 30-06-2019 21:00:00 27.18333 C 16.25 g/m*3 27.18 C 8.6 km/h
263 30-06-2019 22:00:00 26.25833 C 15.72 g/m*3 26.26 C 7.10833 km/h
264 30-06-2019 23:00:00 24.55833 C 15.04 g/m*3 24.56 C 2.66667 km/h
265 01-07-2019 00:00:00 22.68333 C 14.75 g/m*3 22.68 C 1.46667 km/h
266 01-07-2019 01:00:00 22.36667 C 14.49 g/m*3 22.37 C 4.025 km/h
267 01-07-2019 02:00:00 21.63333 C 14.05 g/m*3 21.63 C 1.06667 km/h
268 01-07-2019 03:00:00 20.98333 C 13.19 g/m*3 20.98 C 2.68333 km/h
269 01-07-2019 04:00:00 20.34167 C 12.65 g/m*3 20.34 C 0 km/h
270 01-07-2019 05:00:00 19.65833 C 12.38 g/m*3 19.66 C 0.66667 km/h
271 01-07-2019 06:00:00 19.68333 C 12.03 g/m*3 19.68 C 1.06667 km/h
272 01-07-2019 07:00:00 19.675 C 12.02 g/m*3 19.68 C 4.40833 km/h
273 01-07-2019 08:00:00 19.79167 C 12.06 g/m*3 19.79 C 2.4 km/h
274 01-07-2019 09:00:00 20.24167 C 12.14 g/m*3 20.24 C 4.675 km/h
275 01-07-2019 10:00:00 21.20833 C 12.76 g/m*3 21.21 C 6.84167 km/h
Sensor: Nr:Datum:Temp:Abs-Feuchte:Windchill:Wind:
Aussen-T/F 276 01-07-2019 11:00:00 21.78333 C 13.27 g/m*3 21.78 C 9.80833 km/h
277 01-07-2019 12:00:00 23.16667 C 13.02 g/m*3 23.17 C 8.61667 km/h
278 01-07-2019 13:00:00 24.89167 C 11.65 g/m*3 24.89 C 13.83333 km/h
279 01-07-2019 14:00:00 25.55833 C 12.15 g/m*3 25.56 C 10.61667 km/h
280 01-07-2019 15:00:00 26.675 C 11.92 g/m*3 26.68 C 13.7 km/h
281 01-07-2019 16:00:00 26.89167 C 11.34 g/m*3 26.89 C 13.3 km/h
282 01-07-2019 17:00:00 27.04167 C 10.86 g/m*3 27.04 C 15.43333 km/h
283 01-07-2019 18:00:00 26.3 C 10.89 g/m*3 26.3 C 13.96667 km/h
284 01-07-2019 19:00:00 25.96667 C 10.39 g/m*3 25.97 C 11.96667 km/h
285 01-07-2019 20:00:00 24.53333 C 10.46 g/m*3 24.53 C 8.05 km/h
286 01-07-2019 21:00:00 22.55833 C 10.25 g/m*3 22.56 C 7.25 km/h
287 01-07-2019 22:00:00 20.825 C 10.38 g/m*3 20.83 C 2.93333 km/h
288 01-07-2019 23:00:00 20.03333 C 10.29 g/m*3 20.03 C 8.33333 km/h
289 02-07-2019 00:00:00 18.85833 C 10.21 g/m*3 18.86 C 2.8 km/h
290 02-07-2019 01:00:00 16.89167 C 10.11 g/m*3 16.89 C 2 km/h
291 02-07-2019 02:00:00 15.85 C 10.04 g/m*3 15.85 C 1.73333 km/h
292 02-07-2019 03:00:00 15.49167 C 9.94 g/m*3 15.49 C 2.95 km/h
293 02-07-2019 04:00:00 14.525 C 9.82 g/m*3 14.53 C 0.26667 km/h
294 02-07-2019 05:00:00 13.45 C 9.71 g/m*3 13.45 C 0.13333 km/h
295 02-07-2019 06:00:00 13.10833 C 9.76 g/m*3 13.11 C 0 km/h
296 02-07-2019 07:00:00 13.23333 C 10.01 g/m*3 13.23 C 0 km/h
297 02-07-2019 08:00:00 14.925 C 10.47 g/m*3 14.93 C 3.75 km/h
298 02-07-2019 09:00:00 17.48333 C 10.48 g/m*3 17.48 C 8.45 km/h
299 02-07-2019 10:00:00 19 C 10.23 g/m*3 19 C 9.01667 km/h
300 02-07-2019 11:00:00 19.60833 C 10.23 g/m*3 19.61 C 6.01667 km/h
Sensor: Nr:Datum:Temp:Abs-Feuchte:Windchill:Wind:
Aussen-T/F 301 02-07-2019 12:00:00 20.48333 C 9.79 g/m*3 20.48 C 9 km/h
302 02-07-2019 13:00:00 21.46667 C 9.68 g/m*3 21.47 C 10.075 km/h
303 02-07-2019 14:00:00 22.31667 C 9.72 g/m*3 22.32 C 9.11667 km/h
304 02-07-2019 15:00:00 23.00833 C 9.78 g/m*3 23.01 C 9.14167 km/h
305 02-07-2019 16:00:00 24.98333 C 9.26 g/m*3 24.98 C 11.83333 km/h
306 02-07-2019 17:00:00 25.49167 C 9.11 g/m*3 25.49 C 11.83333 km/h
307 02-07-2019 18:00:00 24.36667 C 9.18 g/m*3 24.37 C 9.675 km/h
308 02-07-2019 19:00:00 24.775 C 8.77 g/m*3 24.78 C 9.83333 km/h
309 02-07-2019 20:00:00 22.95 C 8.56 g/m*3 22.95 C 10.35833 km/h
310 02-07-2019 21:00:00 20.825 C 8.81 g/m*3 20.83 C 2.66667 km/h
311 02-07-2019 22:00:00 17.64167 C 8.76 g/m*3 17.64 C 0.26667 km/h
312 02-07-2019 23:00:00 16.3 C 8.64 g/m*3 16.3 C 0.13333 km/h
313 03-07-2019 00:00:00 14.80833 C 8.63 g/m*3 14.81 C 0 km/h
314 03-07-2019 01:00:00 13.23333 C 8.49 g/m*3 13.23 C 0 km/h
315 03-07-2019 02:00:00 12.30833 C 8.39 g/m*3 12.31 C 0 km/h
316 03-07-2019 03:00:00 11.475 C 8.3 g/m*3 11.48 C 0 km/h
317 03-07-2019 04:00:00 10.65 C 8.15 g/m*3 10.65 C 0 km/h
318 03-07-2019 05:00:00 10.10833 C 8.12 g/m*3 10.11 C 0 km/h
319 03-07-2019 06:00:00 10.13333 C 8.34 g/m*3 10.13 C 0 km/h
320 03-07-2019 07:00:00 10.91667 C 8.83 g/m*3 10.92 C 0 km/h
321 03-07-2019 08:00:00 12.31667 C 9.37 g/m*3 12.32 C 0 km/h
322 03-07-2019 09:00:00 14.475 C 9.56 g/m*3 14.48 C 0.8 km/h
323 03-07-2019 10:00:00 18.01667 C 9.37 g/m*3 18.02 C 3.86667 km/h
324 03-07-2019 11:00:00 19.95 C 8.76 g/m*3 19.95 C 9.4 km/h
325 03-07-2019 12:00:00 20.75833 C 8.81 g/m*3 20.76 C 9.55 km/h
Sensor: Nr:Datum:Temp:Abs-Feuchte:Windchill:Wind:
Aussen-T/F 326 03-07-2019 13:00:00 21.4 C 8.75 g/m*3 21.4 C 11.69167 km/h
327 03-07-2019 14:00:00 21.975 C 8.98 g/m*3 21.98 C 11.96667 km/h
328 03-07-2019 15:00:00 22.625 C 9.09 g/m*3 22.63 C 10.89167 km/h
329 03-07-2019 16:00:00 24.44167 C 8.9 g/m*3 24.44 C 11.43333 km/h
330 03-07-2019 17:00:00 24.56667 C 8.56 g/m*3 24.57 C 13.43333 km/h
331 03-07-2019 18:00:00 24.70833 C 8.49 g/m*3 24.71 C 13.3 km/h
332 03-07-2019 19:00:00 23.79167 C 8.35 g/m*3 23.79 C 13.7 km/h
333 03-07-2019 20:00:00 22.35833 C 8.3 g/m*3 22.36 C 10.5 km/h
334 03-07-2019 21:00:00 20.40833 C 8.22 g/m*3 20.41 C 5.91667 km/h
335 03-07-2019 22:00:00 17.54167 C 8.23 g/m*3 17.54 C 1.46667 km/h
336 03-07-2019 23:00:00 15.46667 C 8.16 g/m*3 15.47 C 0.13333 km/h
337 04-07-2019 00:00:00 14.2 C 8.05 g/m*3 14.2 C 0.26667 km/h
338 04-07-2019 01:00:00 13.48333 C 7.96 g/m*3 13.48 C 0.13333 km/h
339 04-07-2019 02:00:00 12.625 C 7.94 g/m*3 12.63 C 0 km/h
340 04-07-2019 03:00:00 11.24167 C 7.84 g/m*3 11.24 C 0 km/h
341 04-07-2019 04:00:00 10.78333 C 7.87 g/m*3 10.78 C 0 km/h
342 04-07-2019 05:00:00 10.51667 C 7.94 g/m*3 10.52 C 0 km/h
343 04-07-2019 06:00:00 10.28333 C 8.01 g/m*3 10.28 C 0 km/h
344 04-07-2019 07:00:00 10.55 C 8.37 g/m*3 10.55 C 0 km/h
345 04-07-2019 08:00:00 11.76667 C 8.81 g/m*3 11.77 C 0 km/h
346 04-07-2019 09:00:00 14.4 C 9.04 g/m*3 14.4 C 2.94167 km/h
347 04-07-2019 10:00:00 18.125 C 8.68 g/m*3 18.13 C 6.99167 km/h
348 04-07-2019 11:00:00 19.58333 C 8.28 g/m*3 19.58 C 7.38333 km/h
349 04-07-2019 12:00:00 20.4 C 8.02 g/m*3 20.4 C 8.33333 km/h
350 04-07-2019 13:00:00 21.63333 C 7.9 g/m*3 21.63 C 8.475 km/h
Sensor: Nr:Datum:Temp:Abs-Feuchte:Windchill:Wind:
Aussen-T/F 351 04-07-2019 14:00:00 22.71667 C 7.68 g/m*3 22.72 C 6.825 km/h
352 04-07-2019 15:00:00 24.7 C 7.6 g/m*3 24.7 C 9.41667 km/h
353 04-07-2019 16:00:00 26.80833 C 8 g/m*3 26.81 C 8.6 km/h
354 04-07-2019 17:00:00 26.9 C 8.17 g/m*3 26.9 C 9.4 km/h
355 04-07-2019 18:00:00 27.35 C 8.07 g/m*3 27.35 C 8.74167 km/h
356 04-07-2019 19:00:00 26.94167 C 8.12 g/m*3 26.94 C 7.36667 km/h
357 04-07-2019 20:00:00 24.95 C 8.3 g/m*3 24.95 C 5.61667 km/h
358 04-07-2019 21:00:00 21.60833 C 9 g/m*3 21.61 C 0.8 km/h
359 04-07-2019 22:00:00 18.56667 C 8.48 g/m*3 18.57 C 0.13333 km/h
360 04-07-2019 23:00:00 17.39167 C 8.44 g/m*3 17.39 C 0.13333 km/h
361 05-07-2019 00:00:00 16.41667 C 8.59 g/m*3 16.42 C 0.13333 km/h
362 05-07-2019 01:00:00 15.18333 C 8.54 g/m*3 15.18 C 0 km/h
363 05-07-2019 02:00:00 14.13333 C 8.41 g/m*3 14.13 C 0 km/h
364 05-07-2019 03:00:00 13.70833 C 8.68 g/m*3 13.71 C 1.06667 km/h
365 05-07-2019 04:00:00 14.08333 C 8.95 g/m*3 14.08 C 2.93333 km/h
366 05-07-2019 05:00:00 13.75833 C 8.86 g/m*3 13.76 C 0.93333 km/h
367 05-07-2019 06:00:00 13.93333 C 9.17 g/m*3 13.93 C 1.33333 km/h
368 05-07-2019 07:00:00 14.55 C 9.41 g/m*3 14.55 C 3.60833 km/h
369 05-07-2019 08:00:00 15.8 C 9.77 g/m*3 15.8 C 5.61667 km/h
370 05-07-2019 09:00:00 17.29167 C 9.95 g/m*3 17.29 C 3.06667 km/h
371 05-07-2019 10:00:00 20.225 C 10.27 g/m*3 20.23 C 4.40833 km/h
372 05-07-2019 11:00:00 21.94167 C 10.28 g/m*3 21.94 C 5.76667 km/h
373 05-07-2019 12:00:00 22.84167 C 10.24 g/m*3 22.84 C 5.775 km/h
374 05-07-2019 13:00:00 24.38333 C 10.1 g/m*3 24.38 C 9.825 km/h
375 05-07-2019 14:00:00 25.5 C 10.12 g/m*3 25.5 C 7.65 km/h
Sensor: Nr:Datum:Temp:Abs-Feuchte:Windchill:Wind:
Aussen-T/F 376 05-07-2019 15:00:00 27.45 C 9.98 g/m*3 27.45 C 9.68333 km/h
377 05-07-2019 16:00:00 28.91667 C 9.96 g/m*3 28.92 C 10.09167 km/h
378 05-07-2019 17:00:00 29.6 C 10.02 g/m*3 29.6 C 9.94167 km/h
379 05-07-2019 18:00:00 29.41667 C 10.28 g/m*3 29.42 C 11.025 km/h
380 05-07-2019 19:00:00 27.68333 C 10.33 g/m*3 27.68 C 8.75 km/h
381 05-07-2019 20:00:00 26.10833 C 10.45 g/m*3 26.11 C 4.26667 km/h
382 05-07-2019 21:00:00 23.225 C 10.96 g/m*3 23.23 C 0.26667 km/h
383 05-07-2019 22:00:00 21.18333 C 10.88 g/m*3 21.18 C 0.26667 km/h
384 05-07-2019 23:00:00 20.4 C 11.09 g/m*3 20.4 C 0 km/h
385 06-07-2019 00:00:00 18.45833 C 11.03 g/m*3 18.46 C 0 km/h
386 06-07-2019 01:00:00 17.60833 C 10.97 g/m*3 17.61 C 0.26667 km/h
387 06-07-2019 02:00:00 17.05833 C 11.07 g/m*3 17.06 C 0 km/h
388 06-07-2019 03:00:00 16.875 C 11.13 g/m*3 16.88 C 0.53333 km/h
389 06-07-2019 04:00:00 16.16667 C 10.96 g/m*3 16.17 C 0.66667 km/h
390 06-07-2019 05:00:00 15.425 C 10.77 g/m*3 15.43 C 0.13333 km/h
391 06-07-2019 06:00:00 15.18333 C 10.97 g/m*3 15.18 C 0 km/h
392 06-07-2019 07:00:00 15.18333 C 11.03 g/m*3 15.18 C 2.40833 km/h
393 06-07-2019 08:00:00 16.78333 C 11.6 g/m*3 16.78 C 5.34167 km/h
394 06-07-2019 09:00:00 19.425 C 11.97 g/m*3 19.43 C 4.26667 km/h
395 06-07-2019 10:00:00 22.16667 C 12.25 g/m*3 22.17 C 4.15 km/h
396 06-07-2019 11:00:00 24.41667 C 11.79 g/m*3 24.42 C 6.85 km/h
397 06-07-2019 12:00:00 25.48333 C 11.83 g/m*3 25.48 C 8.075 km/h
398 06-07-2019 13:00:00 26.84167 C 11.1 g/m*3 26.84 C 9.81667 km/h
399 06-07-2019 14:00:00 28.7 C 9.07 g/m*3 28.7 C 11.81667 km/h
400 06-07-2019 15:00:00 30.95833 C 7.21 g/m*3 30.96 C 15.83333 km/h
Sensor: Nr:Datum:Temp:Abs-Feuchte:Windchill:Wind:
Aussen-T/F 401 06-07-2019 16:00:00 29.08333 C 6.25 g/m*3 29.08 C 13.16667 km/h
402 06-07-2019 17:00:00 27.89167 C 7.79 g/m*3 27.89 C 16.36667 km/h
403 06-07-2019 18:00:00 22.825 C 10.53 g/m*3 22.83 C 11.79167 km/h
404 06-07-2019 19:00:00 21.60833 C 10.61 g/m*3 21.61 C 6.3 km/h
405 06-07-2019 20:00:00 20.35833 C 11.37 g/m*3 20.36 C 5.08333 km/h
406 06-07-2019 21:00:00 19.75833 C 11.39 g/m*3 19.76 C 3.6 km/h
407 06-07-2019 22:00:00 19.86667 C 12.2 g/m*3 19.87 C 6.43333 km/h
408 06-07-2019 23:00:00 20.35833 C 12.6 g/m*3 20.36 C 9.68333 km/h
409 07-07-2019 00:00:00 18.93333 C 12.04 g/m*3 18.93 C 7.11667 km/h
410 07-07-2019 01:00:00 17.88333 C 11.81 g/m*3 17.88 C 7.39167 km/h
411 07-07-2019 02:00:00 17.33333 C 11 g/m*3 17.33 C 6.175 km/h
412 07-07-2019 03:00:00 17 C 10.94 g/m*3 17 C 4.53333 km/h
413 07-07-2019 04:00:00 16.825 C 10.86 g/m*3 16.83 C 4.94167 km/h
414 07-07-2019 05:00:00 16.47 C 11.07 g/m*3 16.47 C 6.77 km/h
415 07-07-2019 06:00:00 14.96 C 11.51 g/m*3 14.96 C 0.48 km/h
416 07-07-2019 07:00:00 14.65 C 11.66 g/m*3 14.65 C 1.2 km/h
417 07-07-2019 08:00:00 14.28182 C 11.51 g/m*3 14.28 C 0.72727 km/h
418 07-07-2019 09:00:00 14.78333 C 11.92 g/m*3 14.78 C 2.80833 km/h
419 07-07-2019 10:00:00 15.38333 C 11.31 g/m*3 15.38 C 8.60833 km/h
420 07-07-2019 11:00:00 16.50833 C 10.6 g/m*3 16.51 C 9.95833 km/h
421 07-07-2019 12:00:00 17.73333 C 10.22 g/m*3 17.73 C 9.15 km/h
422 07-07-2019 13:00:00 18.5 C 9.88 g/m*3 18.5 C 12.225 km/h
423 07-07-2019 14:00:00 19.25833 C 9.21 g/m*3 19.26 C 12.36667 km/h
424 07-07-2019 15:00:00 20.91667 C 8.84 g/m*3 20.92 C 14.23333 km/h
425 07-07-2019 16:00:00 21.78333 C 8.37 g/m*3 21.78 C 12.88333 km/h
Sensor: Nr:Datum:Temp:Abs-Feuchte:Windchill:Wind:
Aussen-T/F 426 07-07-2019 17:00:00 21.475 C 8.3 g/m*3 21.48 C 12.76667 km/h
427 07-07-2019 18:00:00 21.775 C 8.51 g/m*3 21.78 C 13.16667 km/h
428 07-07-2019 19:00:00 21.325 C 8.31 g/m*3 21.33 C 11.29167 km/h
429 07-07-2019 20:00:00 20 C 8.3 g/m*3 20 C 9.54167 km/h
430 07-07-2019 21:00:00 18.65 C 8.39 g/m*3 18.65 C 5.20833 km/h
431 07-07-2019 22:00:00 15.64167 C 8.83 g/m*3 15.64 C 0 km/h
432 07-07-2019 23:00:00 13.85 C 8.83 g/m*3 13.85 C 0.4 km/h
433 08-07-2019 00:00:00 12.875 C 8.72 g/m*3 12.88 C 0.26667 km/h
434 08-07-2019 01:00:00 11.89167 C 8.6 g/m*3 11.89 C 0 km/h
435 08-07-2019 02:00:00 11.05 C 8.41 g/m*3 11.05 C 0 km/h
436 08-07-2019 03:00:00 10.94167 C 8.33 g/m*3 10.94 C 0.26667 km/h
437 08-07-2019 04:00:00 10.78333 C 8.29 g/m*3 10.78 C 0.53333 km/h
438 08-07-2019 05:00:00 9.89167 C 8.1 g/m*3 9.89 C 0 km/h
439 08-07-2019 06:00:00 9.55833 C 8.18 g/m*3 9.56 C 0 km/h
440 08-07-2019 07:00:00 9.975 C 8.54 g/m*3 9.98 C 0 km/h
441 08-07-2019 08:00:00 11.225 C 9.15 g/m*3 11.23 C 0.53333 km/h
442 08-07-2019 09:00:00 14.18333 C 9.01 g/m*3 14.18 C 8.45 km/h
443 08-07-2019 10:00:00 15.65833 C 8.36 g/m*3 15.66 C 9.28333 km/h
444 08-07-2019 11:00:00 16.14167 C 8.5 g/m*3 16.14 C 10.36667 km/h
445 08-07-2019 12:00:00 16.68333 C 8.46 g/m*3 16.68 C 11.43333 km/h
446 08-07-2019 13:00:00 17.05833 C 8.45 g/m*3 17.06 C 9.69167 km/h
447 08-07-2019 14:00:00 17.33333 C 8.51 g/m*3 17.33 C 8.33333 km/h
448 08-07-2019 15:00:00 17.49167 C 8.62 g/m*3 17.49 C 10.36667 km/h
449 08-07-2019 16:00:00 18.025 C 8.77 g/m*3 18.02 C 9.825 km/h
450 08-07-2019 17:00:00 18.16667 C 8.87 g/m*3 18.17 C 10.36667 km/h
Sensor: Nr:Datum:Temp:Abs-Feuchte:Windchill:Wind:
Aussen-T/F 451 08-07-2019 18:00:00 18.04167 C 8.82 g/m*3 18.04 C 9.68333 km/h
452 08-07-2019 19:00:00 17.75833 C 8.79 g/m*3 17.76 C 7.94167 km/h
453 08-07-2019 20:00:00 17.69167 C 8.82 g/m*3 17.69 C 6.025 km/h
454 08-07-2019 21:00:00 16.26667 C 9.01 g/m*3 16.27 C 2.8 km/h
455 08-07-2019 22:00:00 13.975 C 9.01 g/m*3 13.98 C 0 km/h
456 08-07-2019 23:00:00 14.11667 C 9.16 g/m*3 14.12 C 0.53333 km/h
457 09-07-2019 00:00:00 13.29167 C 9.16 g/m*3 13.29 C 0.13333 km/h
458 09-07-2019 01:00:00 12.7 C 9.06 g/m*3 12.7 C 0 km/h
459 09-07-2019 02:00:00 11.88333 C 8.87 g/m*3 11.88 C 0 km/h
460 09-07-2019 03:00:00 11.11667 C 8.79 g/m*3 11.12 C 0 km/h
461 09-07-2019 04:00:00 10.43333 C 8.53 g/m*3 10.43 C 0 km/h
462 09-07-2019 05:00:00 9.80833 C 8.37 g/m*3 9.81 C 0 km/h
463 09-07-2019 06:00:00 9.725 C 8.43 g/m*3 9.73 C 0 km/h
464 09-07-2019 07:00:00 10.91667 C 9.03 g/m*3 10.92 C 0.8 km/h
465 09-07-2019 08:00:00 12.98333 C 9.22 g/m*3 12.98 C 1.6 km/h
466 09-07-2019 09:00:00 14.2 C 9.26 g/m*3 14.2 C 3.475 km/h
467 09-07-2019 10:00:00 14.9 C 9.01 g/m*3 14.9 C 4.4 km/h
468 09-07-2019 11:00:00 16.09167 C 8.28 g/m*3 16.09 C 9.95 km/h
469 09-07-2019 12:00:00 16.86667 C 8.13 g/m*3 16.87 C 9.55 km/h
470 09-07-2019 13:00:00 17.68333 C 7.9 g/m*3 17.68 C 11.16667 km/h
471 09-07-2019 14:00:00 18.6 C 7.83 g/m*3 18.6 C 11.69167 km/h
472 09-07-2019 15:00:00 19.73333 C 7.81 g/m*3 19.73 C 12.225 km/h
473 09-07-2019 16:00:00 20.475 C 7.77 g/m*3 20.48 C 10.9 km/h
474 09-07-2019 17:00:00 21.725 C 7.55 g/m*3 21.73 C 12.36667 km/h
475 09-07-2019 18:00:00 21.06667 C 7.31 g/m*3 21.07 C 11.56667 km/h
Sensor: Nr:Datum:Temp:Abs-Feuchte:Windchill:Wind:
Aussen-T/F 476 09-07-2019 19:00:00 20.98333 C 7.46 g/m*3 20.98 C 9.825 km/h
477 09-07-2019 20:00:00 19.525 C 7.82 g/m*3 19.52 C 3.06667 km/h
478 09-07-2019 21:00:00 17.04167 C 8.24 g/m*3 17.04 C 0.26667 km/h
479 09-07-2019 22:00:00 14.95 C 7.99 g/m*3 14.95 C 0.26667 km/h
480 09-07-2019 23:00:00 13.10833 C 8.2 g/m*3 13.11 C 0 km/h
481 10-07-2019 00:00:00 12.05 C 8.03 g/m*3 12.05 C 0 km/h
482 10-07-2019 01:00:00 11.01667 C 7.82 g/m*3 11.02 C 0 km/h
483 10-07-2019 02:00:00 10.01667 C 7.63 g/m*3 10.02 C 0 km/h
484 10-07-2019 03:00:00 9.05 C 7.49 g/m*3 9.05 C 0 km/h
485 10-07-2019 04:00:00 8.5 C 7.43 g/m*3 8.5 C 0 km/h
486 10-07-2019 05:00:00 8.23333 C 7.43 g/m*3 8.23 C 0 km/h
487 10-07-2019 06:00:00 8.10833 C 7.47 g/m*3 8.11 C 0 km/h
488 10-07-2019 07:00:00 8.46667 C 7.72 g/m*3 8.47 C 0 km/h
489 10-07-2019 08:00:00 10 C 8.47 g/m*3 10 C 0 km/h
490 10-07-2019 09:00:00 12.49167 C 8.99 g/m*3 12.49 C 1.33333 km/h
491 10-07-2019 10:00:00 16.09167 C 9.38 g/m*3 16.09 C 2.53333 km/h
492 10-07-2019 11:00:00 18.40833 C 8.59 g/m*3 18.41 C 5.49167 km/h
493 10-07-2019 12:00:00 19.80833 C 7.29 g/m*3 19.81 C 7.25833 km/h
494 10-07-2019 13:00:00 21.15833 C 6.55 g/m*3 21.16 C 9.15 km/h
495 10-07-2019 14:00:00 22.70833 C 6.23 g/m*3 22.71 C 10.08333 km/h
496 10-07-2019 15:00:00 24.41667 C 6.29 g/m*3 24.42 C 9.01667 km/h
497 10-07-2019 16:00:00 25.66667 C 6.37 g/m*3 25.67 C 10.35833 km/h
498 10-07-2019 17:00:00 26.63333 C 6.41 g/m*3 26.63 C 9.40833 km/h
499 10-07-2019 18:00:00 26.76667 C 6.54 g/m*3 26.77 C 9.54167 km/h
500 10-07-2019 19:00:00 25.75 C 6.74 g/m*3 25.75 C 9.68333 km/h
Sensor: Nr:Datum:Temp:Abs-Feuchte:Windchill:Wind:
Aussen-T/F 501 10-07-2019 20:00:00 23.525 C 7.13 g/m*3 23.53 C 5.63333 km/h
502 10-07-2019 21:00:00 20.74167 C 7.82 g/m*3 20.74 C 0.13333 km/h
503 10-07-2019 22:00:00 19.21667 C 7.96 g/m*3 19.22 C 0 km/h
504 10-07-2019 23:00:00 18.9 C 8.42 g/m*3 18.9 C 2.55 km/h
505 11-07-2019 00:00:00 19.10833 C 8.92 g/m*3 19.11 C 1.2 km/h
506 11-07-2019 01:00:00 17.8 C 9.27 g/m*3 17.8 C 0 km/h
507 11-07-2019 02:00:00 17.175 C 9.63 g/m*3 17.18 C 0 km/h
508 11-07-2019 03:00:00 16.875 C 10.08 g/m*3 16.88 C 0 km/h
509 11-07-2019 04:00:00 16.59167 C 10.26 g/m*3 16.59 C 0 km/h
510 11-07-2019 05:00:00 16.34167 C 10.18 g/m*3 16.34 C 0 km/h
511 11-07-2019 06:00:00 16.39167 C 10.36 g/m*3 16.39 C 0 km/h
512 11-07-2019 07:00:00 17.23333 C 10.53 g/m*3 17.23 C 0.13333 km/h
513 11-07-2019 08:00:00 17.85833 C 10.51 g/m*3 17.86 C 0.4 km/h
514 11-07-2019 09:00:00 18.675 C 10.95 g/m*3 18.68 C 0.66667 km/h
515 11-07-2019 10:00:00 18.7 C 11.31 g/m*3 18.7 C 0.53333 km/h
516 11-07-2019 11:00:00 18.9 C 11.26 g/m*3 18.9 C 4.975 km/h
517 11-07-2019 12:00:00 17.35 C 12.1 g/m*3 17.35 C 5.63333 km/h
518 11-07-2019 13:00:00 16.31667 C 12.61 g/m*3 16.32 C 2.53333 km/h
519 11-07-2019 14:00:00 16.79167 C 13.25 g/m*3 16.79 C 0.53333 km/h
520 11-07-2019 15:00:00 17.575 C 13.85 g/m*3 17.58 C 2.26667 km/h
521 11-07-2019 16:00:00 19.11667 C 14.66 g/m*3 19.12 C 7.51667 km/h
522 11-07-2019 17:00:00 20.88333 C 15.37 g/m*3 20.88 C 2.8 km/h
523 11-07-2019 18:00:00 19.50833 C 15.13 g/m*3 19.51 C 0.4 km/h
524 11-07-2019 19:00:00 18.3 C 14.55 g/m*3 18.3 C 0.93333 km/h
525 11-07-2019 20:00:00 18.04167 C 14.47 g/m*3 18.04 C 0 km/h
Sensor: Nr:Datum:Temp:Abs-Feuchte:Windchill:Wind:
Aussen-T/F 526 11-07-2019 21:00:00 17.44167 C 13.97 g/m*3 17.44 C 0 km/h
527 11-07-2019 22:00:00 16.85 C 13.61 g/m*3 16.85 C 0 km/h
528 11-07-2019 23:00:00 16.43333 C 13.3 g/m*3 16.43 C 0.93333 km/h
529 12-07-2019 00:00:00 16.05 C 13.12 g/m*3 16.05 C 1.6 km/h
530 12-07-2019 01:00:00 15.70833 C 12.85 g/m*3 15.71 C 1.06667 km/h
531 12-07-2019 02:00:00 15.34167 C 12.57 g/m*3 15.34 C 0.26667 km/h
532 12-07-2019 03:00:00 15.31667 C 12.61 g/m*3 15.32 C 0.26667 km/h
533 12-07-2019 04:00:00 14.93333 C 12.31 g/m*3 14.93 C 0 km/h
534 12-07-2019 05:00:00 14.58333 C 12.13 g/m*3 14.58 C 0 km/h
535 12-07-2019 06:00:00 14.75833 C 12.26 g/m*3 14.76 C 0 km/h
536 12-07-2019 07:00:00 15.73333 C 13.03 g/m*3 15.73 C 1.46667 km/h
537 12-07-2019 08:00:00 16.45833 C 13.6 g/m*3 16.46 C 0 km/h
538 12-07-2019 09:00:00 17.45 C 14.48 g/m*3 17.45 C 0.66667 km/h
539 12-07-2019 10:00:00 18.78333 C 15.28 g/m*3 18.78 C 1.73333 km/h
540 12-07-2019 11:00:00 20.325 C 15.63 g/m*3 20.33 C 0.4 km/h
541 12-07-2019 12:00:00 19.04167 C 14.99 g/m*3 19.04 C 0.8 km/h
542 12-07-2019 13:00:00 17.98333 C 14.46 g/m*3 17.98 C 1.86667 km/h
543 12-07-2019 14:00:00 17.70833 C 14.21 g/m*3 17.71 C 3.06667 km/h
544 12-07-2019 15:00:00 19.6 C 15.04 g/m*3 19.6 C 6.96667 km/h
545 12-07-2019 16:00:00 20.76667 C 15.69 g/m*3 20.77 C 1.06667 km/h
546 12-07-2019 17:00:00 19.975 C 13.79 g/m*3 19.98 C 8.59167 km/h
547 12-07-2019 18:00:00 18.30833 C 13.28 g/m*3 18.31 C 1.46667 km/h
548 12-07-2019 19:00:00 17.55833 C 13.12 g/m*3 17.56 C 4.825 km/h
549 12-07-2019 20:00:00 18.23333 C 13.74 g/m*3 18.23 C 4.025 km/h
550 12-07-2019 21:00:00 17.63333 C 13.07 g/m*3 17.63 C 6.16667 km/h
Sensor: Nr:Datum:Temp:Abs-Feuchte:Windchill:Wind:
Aussen-T/F 551 12-07-2019 22:00:00 17.3 C 12.71 g/m*3 17.3 C 7.64167 km/h
552 12-07-2019 23:00:00 16.55 C 12.44 g/m*3 16.55 C 1.73333 km/h
553 13-07-2019 00:00:00 16.34167 C 12.05 g/m*3 16.34 C 4.55 km/h
554 13-07-2019 01:00:00 16.13333 C 12.35 g/m*3 16.13 C 4.14167 km/h
555 13-07-2019 02:00:00 15.51667 C 12.44 g/m*3 15.52 C 0.53333 km/h
556 13-07-2019 03:00:00 15.175 C 12.3 g/m*3 15.18 C 2.14167 km/h
557 13-07-2019 04:00:00 14.99167 C 12.19 g/m*3 14.99 C 1.875 km/h
558 13-07-2019 05:00:00 14.90833 C 12.24 g/m*3 14.91 C 0 km/h
559 13-07-2019 06:00:00 14.75 C 12.12 g/m*3 14.75 C 1.2 km/h
560 13-07-2019 07:00:00 14.93333 C 12.28 g/m*3 14.93 C 1.06667 km/h
561 13-07-2019 08:00:00 15.61667 C 12.8 g/m*3 15.62 C 1.2 km/h
562 13-07-2019 09:00:00 15.83333 C 12.88 g/m*3 15.83 C 1.46667 km/h
563 13-07-2019 10:00:00 16.5 C 12.78 g/m*3 16.5 C 5.9 km/h
564 13-07-2019 11:00:00 17.51667 C 13.18 g/m*3 17.52 C 5.64167 km/h
565 13-07-2019 12:00:00 18.75833 C 13.09 g/m*3 18.76 C 4.675 km/h
566 13-07-2019 13:00:00 19.725 C 12.91 g/m*3 19.73 C 9.8 km/h
567 13-07-2019 14:00:00 21.15 C 12.8 g/m*3 21.15 C 13.16667 km/h
568 13-07-2019 15:00:00 21.18333 C 13.16 g/m*3 21.18 C 14.35833 km/h
569 13-07-2019 16:00:00 20.90833 C 12.56 g/m*3 20.91 C 13.425 km/h
570 13-07-2019 17:00:00 21.84167 C 12.92 g/m*3 21.84 C 11.7 km/h
571 13-07-2019 18:00:00 22.38333 C 12.75 g/m*3 22.38 C 10.625 km/h
572 13-07-2019 19:00:00 22.70833 C 12.73 g/m*3 22.71 C 9 km/h
573 13-07-2019 20:00:00 20.45833 C 12.45 g/m*3 20.46 C 8.475 km/h
574 13-07-2019 21:00:00 19.2 C 12.74 g/m*3 19.2 C 4.425 km/h
575 13-07-2019 22:00:00 18.225 C 13.24 g/m*3 18.23 C 2.425 km/h
Sensor: Nr:Datum:Temp:Abs-Feuchte:Windchill:Wind:
Aussen-T/F 576 13-07-2019 23:00:00 17.21667 C 13.13 g/m*3 17.22 C 0.26667 km/h
577 14-07-2019 00:00:00 16.95 C 12.95 g/m*3 16.95 C 1.06667 km/h
578 14-07-2019 01:00:00 16.975 C 12.8 g/m*3 16.98 C 3.48333 km/h
579 14-07-2019 02:00:00 16.35833 C 12.48 g/m*3 16.36 C 6.04167 km/h
580 14-07-2019 03:00:00 15.44167 C 11.98 g/m*3 15.44 C 4.01667 km/h
581 14-07-2019 04:00:00 15.11667 C 11.74 g/m*3 15.12 C 3.2 km/h
582 14-07-2019 05:00:00 14.85 C 11.47 g/m*3 14.85 C 3.48333 km/h
583 14-07-2019 06:00:00 14.71667 C 11.46 g/m*3 14.72 C 3.2 km/h
584 14-07-2019 07:00:00 14.86667 C 11.04 g/m*3 14.87 C 2 km/h
585 14-07-2019 08:00:00 15.40833 C 11.22 g/m*3 15.41 C 4.80833 km/h
586 14-07-2019 09:00:00 15.26667 C 10.97 g/m*3 15.27 C 6.56667 km/h
587 14-07-2019 10:00:00 16.00833 C 10.6 g/m*3 16.01 C 9.29167 km/h
588 14-07-2019 11:00:00 16.83333 C 10.48 g/m*3 16.83 C 9.28333 km/h
589 14-07-2019 12:00:00 17.53333 C 10.37 g/m*3 17.53 C 9.95833 km/h
590 14-07-2019 13:00:00 17.80833 C 10.15 g/m*3 17.81 C 10.1 km/h
591 14-07-2019 14:00:00 18.19167 C 9.99 g/m*3 18.19 C 11.16667 km/h
592 14-07-2019 15:00:00 18.925 C 9.91 g/m*3 18.93 C 10.76667 km/h
593 14-07-2019 16:00:00 19.33333 C 9.78 g/m*3 19.33 C 13.3 km/h
594 14-07-2019 17:00:00 19.34167 C 9.74 g/m*3 19.34 C 9.00833 km/h
595 14-07-2019 18:00:00 18.65833 C 9.88 g/m*3 18.66 C 10.35 km/h
596 14-07-2019 19:00:00 18.36667 C 9.73 g/m*3 18.37 C 10.35833 km/h
597 14-07-2019 20:00:00 17.89167 C 10.07 g/m*3 17.89 C 9.94167 km/h
598 14-07-2019 21:00:00 17.45 C 10.02 g/m*3 17.45 C 7.25 km/h
599 14-07-2019 22:00:00 17.125 C 9.93 g/m*3 17.13 C 3.74167 km/h
600 14-07-2019 23:00:00 16.8 C 10.16 g/m*3 16.8 C 3.60833 km/h
Sensor: Nr:Datum:Temp:Abs-Feuchte:Windchill:Wind:
Aussen-T/F 601 15-07-2019 00:00:00 16.06667 C 10.5 g/m*3 16.07 C 1.2 km/h
602 15-07-2019 01:00:00 15.63333 C 10.49 g/m*3 15.63 C 2.675 km/h
603 15-07-2019 02:00:00 15.55833 C 10.66 g/m*3 15.56 C 0.13333 km/h
604 15-07-2019 03:00:00 14.99167 C 10.7 g/m*3 14.99 C 0 km/h
605 15-07-2019 04:00:00 15.30833 C 10.22 g/m*3 15.31 C 2.66667 km/h
606 15-07-2019 05:00:00 15.65 C 9.93 g/m*3 15.65 C 4.81667 km/h
607 15-07-2019 06:00:00 15.6 C 9.86 g/m*3 15.6 C 3.33333 km/h
608 15-07-2019 07:00:00 15.69167 C 9.9 g/m*3 15.69 C 5.49167 km/h
609 15-07-2019 08:00:00 15.83333 C 9.99 g/m*3 15.83 C 6.7 km/h
610 15-07-2019 09:00:00 16.53333 C 10.05 g/m*3 16.53 C 6.44167 km/h
611 15-07-2019 10:00:00 16.8 C 10.32 g/m*3 16.8 C 5.48333 km/h
612 15-07-2019 11:00:00 16.84167 C 10.67 g/m*3 16.84 C 7.525 km/h
613 15-07-2019 12:00:00 17.10833 C 10.61 g/m*3 17.11 C 9.7 km/h
614 15-07-2019 13:00:00 17.49167 C 10.39 g/m*3 17.49 C 11.43333 km/h
615 15-07-2019 14:00:00 18.09167 C 10.24 g/m*3 18.09 C 12.49167 km/h
616 15-07-2019 15:00:00 17.68333 C 10.24 g/m*3 17.68 C 10.75833 km/h
617 15-07-2019 16:00:00 17.11667 C 10.27 g/m*3 17.12 C 8.73333 km/h
618 15-07-2019 17:00:00 16.775 C 10.23 g/m*3 16.77 C 8.74167 km/h
619 15-07-2019 18:00:00 16.69167 C 10.17 g/m*3 16.69 C 6.56667 km/h
620 15-07-2019 19:00:00 16.78333 C 10.14 g/m*3 16.78 C 5.09167 km/h
621 15-07-2019 20:00:00 16.69167 C 10.1 g/m*3 16.69 C 4.01667 km/h
622 15-07-2019 21:00:00 16.34167 C 10.28 g/m*3 16.34 C 2.13333 km/h
623 15-07-2019 22:00:00 15.61667 C 10.58 g/m*3 15.62 C 0 km/h
624 15-07-2019 23:00:00 15.44167 C 10.18 g/m*3 15.44 C 0.93333 km/h
625 16-07-2019 00:00:00 14.75 C 10.08 g/m*3 14.75 C 0 km/h
Sensor: Nr:Datum:Temp:Abs-Feuchte:Windchill:Wind:
Aussen-T/F 626 16-07-2019 01:00:00 13.675 C 9.5 g/m*3 13.68 C 0 km/h
627 16-07-2019 02:00:00 12.23333 C 9.25 g/m*3 12.23 C 0 km/h
628 16-07-2019 03:00:00 10.9 C 8.98 g/m*3 10.9 C 0 km/h
629 16-07-2019 04:00:00 10.28333 C 8.83 g/m*3 10.28 C 0 km/h
630 16-07-2019 05:00:00 9.98333 C 8.75 g/m*3 9.98 C 0 km/h
631 16-07-2019 06:00:00 10.125 C 8.94 g/m*3 10.13 C 1.33333 km/h
632 16-07-2019 07:00:00 11.01667 C 9.39 g/m*3 11.02 C 4.4 km/h
633 16-07-2019 08:00:00 12.625 C 10.06 g/m*3 12.63 C 2.4 km/h
634 16-07-2019 09:00:00 14.58333 C 10.52 g/m*3 14.58 C 4.15 km/h
635 16-07-2019 10:00:00 15.51667 C 10.25 g/m*3 15.52 C 6.84167 km/h
636 16-07-2019 11:00:00 15.99167 C 10.17 g/m*3 15.99 C 9.66667 km/h
637 16-07-2019 12:00:00 16.725 C 10.22 g/m*3 16.73 C 10.49167 km/h
638 16-07-2019 13:00:00 17.40833 C 10.29 g/m*3 17.41 C 8.46667 km/h
639 16-07-2019 14:00:00 18.38333 C 10.45 g/m*3 18.38 C 9.95 km/h
640 16-07-2019 15:00:00 20.325 C 10.73 g/m*3 20.33 C 7.78333 km/h
641 16-07-2019 16:00:00 22.31667 C 10.84 g/m*3 22.32 C 8.325 km/h
642 16-07-2019 17:00:00 22.8 C 10.79 g/m*3 22.8 C 9.55833 km/h
643 16-07-2019 18:00:00 23.075 C 10.73 g/m*3 23.08 C 8.05833 km/h
644 16-07-2019 19:00:00 22.125 C 10.59 g/m*3 22.13 C 8.89167 km/h
645 16-07-2019 20:00:00 20.81667 C 10.57 g/m*3 20.82 C 6.45 km/h
646 16-07-2019 21:00:00 18.30833 C 10.98 g/m*3 18.31 C 0.53333 km/h
647 16-07-2019 22:00:00 15.85 C 10.64 g/m*3 15.85 C 0 km/h
648 16-07-2019 23:00:00 15.08333 C 10.54 g/m*3 15.08 C 0 km/h
649 17-07-2019 00:00:00 14.09167 C 10.23 g/m*3 14.09 C 0 km/h
650 17-07-2019 01:00:00 13.08333 C 10.06 g/m*3 13.08 C 0 km/h
Sensor: Nr:Datum:Temp:Abs-Feuchte:Windchill:Wind:
Aussen-T/F 651 17-07-2019 02:00:00 12.40833 C 9.81 g/m*3 12.41 C 0 km/h
652 17-07-2019 03:00:00 11.64167 C 9.54 g/m*3 11.64 C 0 km/h
653 17-07-2019 04:00:00 11.225 C 9.42 g/m*3 11.23 C 0.26667 km/h
654 17-07-2019 05:00:00 10.83333 C 9.29 g/m*3 10.83 C 0 km/h
655 17-07-2019 06:00:00 10.74167 C 9.31 g/m*3 10.74 C 0 km/h
656 17-07-2019 07:00:00 11.51667 C 9.83 g/m*3 11.52 C 0 km/h
657 17-07-2019 08:00:00 12.79167 C 10.58 g/m*3 12.79 C 0 km/h
658 17-07-2019 09:00:00 14.85833 C 11.26 g/m*3 14.86 C 1.86667 km/h
659 17-07-2019 10:00:00 17.23333 C 11.36 g/m*3 17.23 C 5.35833 km/h
660 17-07-2019 11:00:00 18.58333 C 11.4 g/m*3 18.58 C 6.58333 km/h
661 17-07-2019 12:00:00 19.39167 C 11.46 g/m*3 19.39 C 7.375 km/h
662 17-07-2019 13:00:00 20.5 C 11.2 g/m*3 20.5 C 8.88333 km/h
663 17-07-2019 14:00:00 21.69167 C 11.23 g/m*3 21.69 C 9.13333 km/h
664 17-07-2019 15:00:00 22.69167 C 11.71 g/m*3 22.69 C 12.63333 km/h
665 17-07-2019 16:00:00 23.675 C 11.73 g/m*3 23.68 C 11.55833 km/h
666 17-07-2019 17:00:00 24.575 C 11.91 g/m*3 24.58 C 10.225 km/h
667 17-07-2019 18:00:00 24.24167 C 11.95 g/m*3 24.24 C 11.3 km/h
668 17-07-2019 19:00:00 23.20833 C 12.17 g/m*3 23.21 C 10.23333 km/h
669 17-07-2019 20:00:00 21.525 C 12.13 g/m*3 21.53 C 8.74167 km/h
670 17-07-2019 21:00:00 19.69167 C 11.99 g/m*3 19.69 C 2.68333 km/h
671 17-07-2019 22:00:00 17.05 C 11.61 g/m*3 17.05 C 0.13333 km/h
672 17-07-2019 23:00:00 16.025 C 11.53 g/m*3 16.02 C 0 km/h
673 18-07-2019 00:00:00 15.29167 C 11.24 g/m*3 15.29 C 0 km/h
674 18-07-2019 01:00:00 14.29167 C 10.87 g/m*3 14.29 C 0 km/h
675 18-07-2019 02:00:00 13.69167 C 10.8 g/m*3 13.69 C 0 km/h
Sensor: Nr:Datum:Temp:Abs-Feuchte:Windchill:Wind:
Aussen-T/F 676 18-07-2019 03:00:00 13.45833 C 10.76 g/m*3 13.46 C 0 km/h
677 18-07-2019 04:00:00 13.24167 C 10.7 g/m*3 13.24 C 0 km/h
678 18-07-2019 05:00:00 12.675 C 10.35 g/m*3 12.68 C 0 km/h
679 18-07-2019 06:00:00 12.45833 C 10.34 g/m*3 12.46 C 0 km/h
680 18-07-2019 07:00:00 13.25833 C 10.95 g/m*3 13.26 C 0 km/h
681 18-07-2019 08:00:00 14.31667 C 11.46 g/m*3 14.32 C 0.13333 km/h
682 18-07-2019 09:00:00 16.21667 C 12.3 g/m*3 16.22 C 0 km/h
683 18-07-2019 10:00:00 18.83333 C 13.12 g/m*3 18.83 C 0.13333 km/h
684 18-07-2019 11:00:00 21.89167 C 12.42 g/m*3 21.89 C 5.24167 km/h
685 18-07-2019 12:00:00 24.18333 C 11.91 g/m*3 24.18 C 4.675 km/h
686 18-07-2019 13:00:00 25.71667 C 11.76 g/m*3 25.72 C 6.15 km/h
687 18-07-2019 14:00:00 27.20833 C 10.7 g/m*3 27.21 C 10.325 km/h
688 18-07-2019 15:00:00 26.04167 C 10.96 g/m*3 26.04 C 7.525 km/h
689 18-07-2019 16:00:00 24.76667 C 11.91 g/m*3 24.77 C 6.70833 km/h
690 18-07-2019 17:00:00 24.84167 C 12.8 g/m*3 24.84 C 2.675 km/h
691 18-07-2019 18:00:00 23.975 C 13.63 g/m*3 23.98 C 1.86667 km/h
692 18-07-2019 19:00:00 21.06667 C 13.65 g/m*3 21.07 C 0 km/h
693 18-07-2019 20:00:00 20.86667 C 12.72 g/m*3 20.87 C 0.13333 km/h
694 18-07-2019 21:00:00 20.35 C 12.19 g/m*3 20.35 C 0 km/h
695 18-07-2019 22:00:00 19.66667 C 12.15 g/m*3 19.67 C 0.26667 km/h
696 18-07-2019 23:00:00 19.35833 C 12.07 g/m*3 19.36 C 0 km/h
697 19-07-2019 00:00:00 19.33333 C 12.31 g/m*3 19.33 C 0 km/h
698 19-07-2019 01:00:00 18.45833 C 13.01 g/m*3 18.46 C 0 km/h
699 19-07-2019 02:00:00 17.05833 C 13.06 g/m*3 17.06 C 0 km/h
700 19-07-2019 03:00:00 16.60833 C 13.05 g/m*3 16.61 C 0 km/h
Sensor: Nr:Datum:Temp:Abs-Feuchte:Windchill:Wind:
Aussen-T/F 701 19-07-2019 04:00:00 16.375 C 13.02 g/m*3 16.38 C 0 km/h
702 19-07-2019 05:00:00 16.3 C 13.06 g/m*3 16.3 C 0 km/h
703 19-07-2019 06:00:00 16.35 C 13.22 g/m*3 16.35 C 0 km/h
704 19-07-2019 07:00:00 16.7 C 13.54 g/m*3 16.7 C 0 km/h
705 19-07-2019 08:00:00 17.23333 C 14.09 g/m*3 17.23 C 0.4 km/h
706 19-07-2019 09:00:00 18.025 C 14.59 g/m*3 18.02 C 2.55 km/h
707 19-07-2019 10:00:00 19.275 C 14.96 g/m*3 19.27 C 6.16667 km/h
708 19-07-2019 11:00:00 20.475 C 14.87 g/m*3 20.48 C 6.725 km/h
709 19-07-2019 12:00:00 20.04167 C 14.93 g/m*3 20.04 C 2.94167 km/h
710 19-07-2019 13:00:00 21.975 C 14.5 g/m*3 21.98 C 7.54167 km/h
711 19-07-2019 14:00:00 23.525 C 12.9 g/m*3 23.53 C 10.73333 km/h
712 19-07-2019 15:00:00 24.875 C 12.08 g/m*3 24.88 C 10.76667 km/h
713 19-07-2019 16:00:00 25.21667 C 11.79 g/m*3 25.22 C 10.23333 km/h
714 19-07-2019 17:00:00 25.91667 C 12.02 g/m*3 25.92 C 8.2 km/h
715 19-07-2019 18:00:00 25.43333 C 12.05 g/m*3 25.43 C 6.425 km/h
716 19-07-2019 19:00:00 24.78333 C 13.68 g/m*3 24.78 C 1.6 km/h
717 19-07-2019 20:00:00 23.25833 C 13.4 g/m*3 23.26 C 0.8 km/h
718 19-07-2019 21:00:00 20.90833 C 13.04 g/m*3 20.91 C 0 km/h
719 19-07-2019 22:00:00 19.20833 C 13.05 g/m*3 19.21 C 0 km/h
720 19-07-2019 23:00:00 18.525 C 13.14 g/m*3 18.52 C 0 km/h

Maximal/Minimal-Werte vom 20.06.2019 - 19.07.2019

Sensor Min Max Avg
Temp
(Aussen-T/F)
8.1 °C
10-07-2019  05:50:00
37.9 °C
25-06-2019  17:45:00
19.83 °C
Abs-Feuchte
(Aussen-T/F)
6.23 g/m*3
10-07-2019  14:00:00
19.53 g/m*3
26-06-2019  11:00:00
11.37 g/m*3
Windchill
(Aussen-T/F)
8.11 C
10-07-2019  06:00:00
37.69 C
25-06-2019  17:00:00
19.8 C

Die Daten stammen von einer Davis Vantage Pro 2 Wetter-Station und werden unter Linux mit der Software wview2wettercgi und aufbereitet. Alle Angaben erfolgen ohne Gewähr für ihre Vollständigkeit oder Richtigkeit.
Kontakt: Rainer Krienke krienke@uni-koblenz.de . Meine Webseiten an der Uni Koblenz oder privat.
Version: $Revision: 0.78 $